sensor_id;sensor_type;location;lat;lon;timestamp;pressure;altitude;pressure_sealevel;temperature
15360;BMP280;7779;49.596;11.070;2022-08-03T00:00:12;98333.13;;;20.98
15360;BMP280;7779;49.596;11.070;2022-08-03T00:02:40;98327.16;;;20.94
15360;BMP280;7779;49.596;11.070;2022-08-03T00:05:06;98336.44;;;20.91
15360;BMP280;7779;49.596;11.070;2022-08-03T00:07:33;98325.34;;;20.87
15360;BMP280;7779;49.596;11.070;2022-08-03T00:09:59;98330.38;;;20.84
15360;BMP280;7779;49.596;11.070;2022-08-03T00:12:25;98328.63;;;20.80
15360;BMP280;7779;49.596;11.070;2022-08-03T00:14:51;98326.88;;;20.77
15360;BMP280;7779;49.596;11.070;2022-08-03T00:17:17;98328.53;;;20.75
15360;BMP280;7779;49.596;11.070;2022-08-03T00:19:43;98331.84;;;20.71
15360;BMP280;7779;49.596;11.070;2022-08-03T00:22:08;98330.13;;;20.68
15360;BMP280;7779;49.596;11.070;2022-08-03T00:24:34;98338.56;;;20.66
15360;BMP280;7779;49.596;11.070;2022-08-03T00:27:01;98334.25;;;20.63
15360;BMP280;7779;49.596;11.070;2022-08-03T00:29:27;98339.28;;;20.60
15360;BMP280;7779;49.596;11.070;2022-08-03T00:31:52;98347.69;;;20.56
15360;BMP280;7779;49.596;11.070;2022-08-03T00:34:18;98347.66;;;20.53
15360;BMP280;7779;49.596;11.070;2022-08-03T00:36:44;98346.72;;;20.50
15360;BMP280;7779;49.596;11.070;2022-08-03T00:39:10;98348.41;;;20.48
15360;BMP280;7779;49.596;11.070;2022-08-03T00:41:36;98344.09;;;20.45
15360;BMP280;7779;49.596;11.070;2022-08-03T00:44:02;98339.81;;;20.43
15360;BMP280;7779;49.596;11.070;2022-08-03T00:46:28;98342.28;;;20.38
15360;BMP280;7779;49.596;11.070;2022-08-03T00:48:53;98341.38;;;20.36
15360;BMP280;7779;49.596;11.070;2022-08-03T00:51:21;98351.53;;;20.34
15360;BMP280;7779;49.596;11.070;2022-08-03T00:53:47;98339.59;;;20.31
15360;BMP280;7779;49.596;11.070;2022-08-03T00:56:15;98357.31;;;20.27
15360;BMP280;7779;49.596;11.070;2022-08-03T00:58:44;98357.25;;;20.22
15360;BMP280;7779;49.596;11.070;2022-08-03T01:01:10;98349.53;;;20.18
15360;BMP280;7779;49.596;11.070;2022-08-03T01:03:37;98347.72;;;20.12
15360;BMP280;7779;49.596;11.070;2022-08-03T01:06:19;98351.84;;;20.07
15360;BMP280;7779;49.596;11.070;2022-08-03T01:12:13;98350.75;;;19.94
15360;BMP280;7779;49.596;11.070;2022-08-03T01:18:08;98345.28;;;19.79
15360;BMP280;7779;49.596;11.070;2022-08-03T01:20:43;98346.03;;;19.73
15360;BMP280;7779;49.596;11.070;2022-08-03T01:31:48;98348.09;;;19.51
15360;BMP280;7779;49.596;11.070;2022-08-03T01:34:19;98347.13;;;19.46
15360;BMP280;7779;49.596;11.070;2022-08-03T01:36:55;98342.91;;;19.45
15360;BMP280;7779;49.596;11.070;2022-08-03T01:39:26;98338.59;;;19.43
15360;BMP280;7779;49.596;11.070;2022-08-03T01:41:59;98335.16;;;19.41
15360;BMP280;7779;49.596;11.070;2022-08-03T01:44:30;98335.13;;;19.39
15360;BMP280;7779;49.596;11.070;2022-08-03T01:47:00;98346.13;;;19.38
15360;BMP280;7779;49.596;11.070;2022-08-03T01:49:29;98341.81;;;19.36
15360;BMP280;7779;49.596;11.070;2022-08-03T01:51:57;98342.63;;;19.33
15360;BMP280;7779;49.596;11.070;2022-08-03T01:54:25;98340.84;;;19.29
15360;BMP280;7779;49.596;11.070;2022-08-03T01:56:55;98338.22;;;19.26
15360;BMP280;7779;49.596;11.070;2022-08-03T01:59:25;98342.38;;;19.23
15360;BMP280;7779;49.596;11.070;2022-08-03T02:01:52;98334.66;;;19.18
15360;BMP280;7779;49.596;11.070;2022-08-03T02:04:20;98339.66;;;19.16
15360;BMP280;7779;49.596;11.070;2022-08-03T02:06:48;98335.34;;;19.12
15360;BMP280;7779;49.596;11.070;2022-08-03T02:09:16;98337.81;;;19.09
15360;BMP280;7779;49.596;11.070;2022-08-03T02:11:45;98337.75;;;19.06
15360;BMP280;7779;49.596;11.070;2022-08-03T02:14:13;98333.44;;;19.02
15360;BMP280;7779;49.596;11.070;2022-08-03T02:16:40;98335.03;;;19.00
15360;BMP280;7779;49.596;11.070;2022-08-03T02:19:10;98336.69;;;18.98
15360;BMP280;7779;49.596;11.070;2022-08-03T02:21:37;98329.84;;;18.95
15360;BMP280;7779;49.596;11.070;2022-08-03T02:24:04;98334.06;;;18.95
15360;BMP280;7779;49.596;11.070;2022-08-03T02:26:32;98331.44;;;18.92
15360;BMP280;7779;49.596;11.070;2022-08-03T02:29:13;98323.75;;;18.89
15360;BMP280;7779;49.596;11.070;2022-08-03T02:31:42;98327.97;;;18.88
15360;BMP280;7779;49.596;11.070;2022-08-03T02:34:13;98325.34;;;18.85
15360;BMP280;7779;49.596;11.070;2022-08-03T02:36:41;98327.06;;;18.85
15360;BMP280;7779;49.596;11.070;2022-08-03T02:39:16;98321.91;;;18.82
15360;BMP280;7779;49.596;11.070;2022-08-03T02:41:51;98328.59;;;18.80
15360;BMP280;7779;49.596;11.070;2022-08-03T02:44:25;98326.88;;;18.77
15360;BMP280;7779;49.596;11.070;2022-08-03T02:46:59;98324.25;;;18.75
15360;BMP280;7779;49.596;11.070;2022-08-03T02:49:28;98325.00;;;18.71
15360;BMP280;7779;49.596;11.070;2022-08-03T02:51:57;98321.56;;;18.69
15360;BMP280;7779;49.596;11.070;2022-08-03T02:54:26;98323.16;;;18.65
15360;BMP280;7779;49.596;11.070;2022-08-03T02:56:56;98324.72;;;18.60
15360;BMP280;7779;49.596;11.070;2022-08-03T02:59:25;98322.00;;;18.53
15360;BMP280;7779;49.596;11.070;2022-08-03T03:01:53;98317.63;;;18.47
15360;BMP280;7779;49.596;11.070;2022-08-03T03:04:20;98318.38;;;18.43
15360;BMP280;7779;49.596;11.070;2022-08-03T03:06:48;98324.22;;;18.39
15360;BMP280;7779;49.596;11.070;2022-08-03T03:09:16;98331.69;;;18.34
15360;BMP280;7779;49.596;11.070;2022-08-03T03:11:43;98335.81;;;18.30
15360;BMP280;7779;49.596;11.070;2022-08-03T03:14:10;98331.47;;;18.26
15360;BMP280;7779;49.596;11.070;2022-08-03T03:16:39;98337.31;;;18.24
15360;BMP280;7779;49.596;11.070;2022-08-03T03:19:07;98340.59;;;18.20
15360;BMP280;7779;49.596;11.070;2022-08-03T03:21:36;98337.22;;;18.19
15360;BMP280;7779;49.596;11.070;2022-08-03T03:24:04;98337.97;;;18.17
15360;BMP280;7779;49.596;11.070;2022-08-03T03:26:32;98348.06;;;18.14
15360;BMP280;7779;49.596;11.070;2022-08-03T03:28:58;98342.88;;;18.11
15360;BMP280;7779;49.596;11.070;2022-08-03T03:31:25;98343.72;;;18.10
15360;BMP280;7779;49.596;11.070;2022-08-03T03:33:51;98337.69;;;18.08
15360;BMP280;7779;49.596;11.070;2022-08-03T03:36:17;98348.66;;;18.07
15360;BMP280;7779;49.596;11.070;2022-08-03T03:38:43;98345.22;;;18.05
15360;BMP280;7779;49.596;11.070;2022-08-03T03:41:09;98351.09;;;18.04
15360;BMP280;7779;49.596;11.070;2022-08-03T03:43:35;98345.19;;;18.03
15360;BMP280;7779;49.596;11.070;2022-08-03T03:46:01;98344.34;;;18.03
15360;BMP280;7779;49.596;11.070;2022-08-03T03:48:27;98341.78;;;18.03
15360;BMP280;7779;49.596;11.070;2022-08-03T03:50:53;98341.78;;;18.03
15360;BMP280;7779;49.596;11.070;2022-08-03T03:53:22;98342.59;;;18.02
15360;BMP280;7779;49.596;11.070;2022-08-03T03:55:47;98345.97;;;18.02
15360;BMP280;7779;49.596;11.070;2022-08-03T03:58:13;98345.97;;;18.02
15360;BMP280;7779;49.596;11.070;2022-08-03T04:00:40;98345.97;;;18.02
15360;BMP280;7779;49.596;11.070;2022-08-03T04:03:09;98353.59;;;18.02
15360;BMP280;7779;49.596;11.070;2022-08-03T04:05:36;98353.59;;;18.02
15360;BMP280;7779;49.596;11.070;2022-08-03T04:08:21;98349.34;;;18.01
15360;BMP280;7779;49.596;11.070;2022-08-03T04:11:18;98342.59;;;18.02
15360;BMP280;7779;49.596;11.070;2022-08-03T04:13:57;98345.13;;;18.02
15360;BMP280;7779;49.596;11.070;2022-08-03T04:16:29;98345.97;;;18.02
15360;BMP280;7779;49.596;11.070;2022-08-03T04:19:03;98345.97;;;18.02
15360;BMP280;7779;49.596;11.070;2022-08-03T04:21:31;98354.41;;;18.01
15360;BMP280;7779;49.596;11.070;2022-08-03T04:24:01;98350.25;;;18.03
15360;BMP280;7779;49.596;11.070;2022-08-03T04:26:33;98354.50;;;18.04
15360;BMP280;7779;49.596;11.070;2022-08-03T04:29:03;98354.53;;;18.06
15360;BMP280;7779;49.596;11.070;2022-08-03T04:31:29;98353.72;;;18.07
15360;BMP280;7779;49.596;11.070;2022-08-03T04:33:56;98356.41;;;18.10
15360;BMP280;7779;49.596;11.070;2022-08-03T04:36:25;98359.81;;;18.12
15360;BMP280;7779;49.596;11.070;2022-08-03T04:38:59;98357.31;;;18.13
15360;BMP280;7779;49.596;11.070;2022-08-03T04:41:27;98360.78;;;18.15
15360;BMP280;7779;49.596;11.070;2022-08-03T04:43:56;98351.53;;;18.19
15360;BMP280;7779;49.596;11.070;2022-08-03T04:46:28;98357.59;;;18.24
15360;BMP280;7779;49.596;11.070;2022-08-03T04:48:57;98358.59;;;18.29
15360;BMP280;7779;49.596;11.070;2022-08-03T04:51:24;98363.81;;;18.35
15360;BMP280;7779;49.596;11.070;2022-08-03T04:53:50;98371.72;;;18.45
15360;BMP280;7779;49.596;11.070;2022-08-03T04:56:16;98356.88;;;18.60
15360;BMP280;7779;49.596;11.070;2022-08-03T04:58:43;98365.03;;;18.80
15360;BMP280;7779;49.596;11.070;2022-08-03T05:01:09;98365.50;;;19.00
15360;BMP280;7779;49.596;11.070;2022-08-03T05:03:35;98364.31;;;19.19
15360;BMP280;7779;49.596;11.070;2022-08-03T05:06:01;98362.13;;;19.36
15360;BMP280;7779;49.596;11.070;2022-08-03T05:08:28;98357.44;;;19.52
15360;BMP280;7779;49.596;11.070;2022-08-03T05:10:55;98364.56;;;19.68
15360;BMP280;7779;49.596;11.070;2022-08-03T05:13:21;98364.09;;;19.84
15360;BMP280;7779;49.596;11.070;2022-08-03T05:15:46;98360.19;;;19.99
15360;BMP280;7779;49.596;11.070;2022-08-03T05:18:12;98364.72;;;20.13
15360;BMP280;7779;49.596;11.070;2022-08-03T05:20:38;98367.53;;;20.28
15360;BMP280;7779;49.596;11.070;2022-08-03T05:23:04;98365.19;;;20.40
15360;BMP280;7779;49.596;11.070;2022-08-03T05:25:30;98361.25;;;20.55
15360;BMP280;7779;49.596;11.070;2022-08-03T05:27:55;98364.94;;;20.69
15360;BMP280;7779;49.596;11.070;2022-08-03T05:30:21;98369.44;;;20.83
15360;BMP280;7779;49.596;11.070;2022-08-03T05:32:47;98367.16;;;21.00
15360;BMP280;7779;49.596;11.070;2022-08-03T05:35:13;98372.50;;;21.15
15360;BMP280;7779;49.596;11.070;2022-08-03T05:37:39;98365.88;;;21.28
15360;BMP280;7779;49.596;11.070;2022-08-03T05:40:05;98362.75;;;21.43
15360;BMP280;7779;49.596;11.070;2022-08-03T05:42:31;98373.19;;;21.60
15360;BMP280;7779;49.596;11.070;2022-08-03T05:44:57;98364.09;;;21.77
15360;BMP280;7779;49.596;11.070;2022-08-03T05:47:23;98366.88;;;21.96
15360;BMP280;7779;49.596;11.070;2022-08-03T05:49:49;98371.44;;;22.17
15360;BMP280;7779;49.596;11.070;2022-08-03T05:52:15;98369.94;;;22.38
15360;BMP280;7779;49.596;11.070;2022-08-03T05:54:40;98365.03;;;22.57
15360;BMP280;7779;49.596;11.070;2022-08-03T05:57:06;98368.69;;;22.80
15360;BMP280;7779;49.596;11.070;2022-08-03T05:59:32;98362.94;;;23.02
15360;BMP280;7779;49.596;11.070;2022-08-03T06:01:58;98363.94;;;23.24
15360;BMP280;7779;49.596;11.070;2022-08-03T06:04:24;98369.25;;;23.48
15360;BMP280;7779;49.596;11.070;2022-08-03T06:06:49;98359.19;;;23.75
15360;BMP280;7779;49.596;11.070;2022-08-03T06:09:16;98361.84;;;24.00
15360;BMP280;7779;49.596;11.070;2022-08-03T06:11:42;98354.28;;;24.25
15360;BMP280;7779;49.596;11.070;2022-08-03T06:14:08;98350.13;;;24.51
15360;BMP280;7779;49.596;11.070;2022-08-03T06:16:34;98354.41;;;24.78
15360;BMP280;7779;49.596;11.070;2022-08-03T06:19:00;98351.91;;;25.05
15360;BMP280;7779;49.596;11.070;2022-08-03T06:21:26;98347.59;;;25.31
15360;BMP280;7779;49.596;11.070;2022-08-03T06:23:52;98352.69;;;25.56
15360;BMP280;7779;49.596;11.070;2022-08-03T06:26:18;98348.41;;;25.80
15360;BMP280;7779;49.596;11.070;2022-08-03T06:28:44;98353.44;;;26.01
15360;BMP280;7779;49.596;11.070;2022-08-03T06:31:10;98342.22;;;26.23
15360;BMP280;7779;49.596;11.070;2022-08-03T06:33:36;98348.97;;;26.43
15360;BMP280;7779;49.596;11.070;2022-08-03T06:36:03;98343.72;;;26.62
15360;BMP280;7779;49.596;11.070;2022-08-03T06:38:29;98345.31;;;26.79
15360;BMP280;7779;49.596;11.070;2022-08-03T06:40:54;98345.22;;;26.96
15360;BMP280;7779;49.596;11.070;2022-08-03T06:43:20;98345.09;;;27.11
15360;BMP280;7779;49.596;11.070;2022-08-03T06:45:46;98349.25;;;27.23
15360;BMP280;7779;49.596;11.070;2022-08-03T06:48:12;98339.72;;;27.33
15360;BMP280;7779;49.596;11.070;2022-08-03T06:50:40;98336.22;;;27.43
15360;BMP280;7779;49.596;11.070;2022-08-03T06:53:07;98342.16;;;27.52
15360;BMP280;7779;49.596;11.070;2022-08-03T06:55:36;98344.63;;;27.62
15360;BMP280;7779;49.596;11.070;2022-08-03T06:58:02;98345.34;;;27.72
15360;BMP280;7779;49.596;11.070;2022-08-03T07:00:31;98346.09;;;27.84
15360;BMP280;7779;49.596;11.070;2022-08-03T07:02:57;98343.34;;;27.97
15360;BMP280;7779;49.596;11.070;2022-08-03T07:05:23;98342.31;;;28.13
15360;BMP280;7779;49.596;11.070;2022-08-03T07:07:49;98335.28;;;28.26
15360;BMP280;7779;49.596;11.070;2022-08-03T07:10:15;98342.88;;;28.36
15360;BMP280;7779;49.596;11.070;2022-08-03T07:12:41;98335.03;;;28.43
15360;BMP280;7779;49.596;11.070;2022-08-03T07:15:08;98342.69;;;28.48
15360;BMP280;7779;49.596;11.070;2022-08-03T07:17:35;98345.19;;;28.54
15360;BMP280;7779;49.596;11.070;2022-08-03T07:20:05;98343.38;;;28.62
15360;BMP280;7779;49.596;11.070;2022-08-03T07:22:33;98336.38;;;28.70
15360;BMP280;7779;49.596;11.070;2022-08-03T07:24:59;98331.09;;;28.78
15360;BMP280;7779;49.596;11.070;2022-08-03T07:27:26;98328.38;;;28.87
15360;BMP280;7779;49.596;11.070;2022-08-03T07:29:55;98327.34;;;28.99
15360;BMP280;7779;49.596;11.070;2022-08-03T07:32:21;98328.84;;;29.10
15360;BMP280;7779;49.596;11.070;2022-08-03T07:34:47;98330.41;;;29.20
15360;BMP280;7779;49.596;11.070;2022-08-03T07:37:13;98326.78;;;29.33
15360;BMP280;7779;49.596;11.070;2022-08-03T07:39:39;98323.97;;;29.43
15360;BMP280;7779;49.596;11.070;2022-08-03T07:42:05;98331.59;;;29.50
15360;BMP280;7779;49.596;11.070;2022-08-03T07:44:31;98324.47;;;29.61
15360;BMP280;7779;49.596;11.070;2022-08-03T07:46:56;98323.47;;;29.73
15360;BMP280;7779;49.596;11.070;2022-08-03T07:49:22;98321.53;;;29.82
15360;BMP280;7779;49.596;11.070;2022-08-03T07:51:48;98329.06;;;29.94
15360;BMP280;7779;49.596;11.070;2022-08-03T07:54:34;98323.63;;;30.06
15360;BMP280;7779;49.596;11.070;2022-08-03T07:57:00;98320.03;;;30.13
15360;BMP280;7779;49.596;11.070;2022-08-03T07:59:26;98319.91;;;30.19
15360;BMP280;7779;49.596;11.070;2022-08-03T08:01:52;98310.25;;;30.27
15360;BMP280;7779;49.596;11.070;2022-08-03T08:04:19;98308.34;;;30.36
15360;BMP280;7779;49.596;11.070;2022-08-03T08:06:45;98310.72;;;30.46
15360;BMP280;7779;49.596;11.070;2022-08-03T08:09:10;98310.41;;;30.58
15360;BMP280;7779;49.596;11.070;2022-08-03T08:11:36;98305.88;;;30.68
15360;BMP280;7779;49.596;11.070;2022-08-03T08:14:03;98308.25;;;30.76
15360;BMP280;7779;49.596;11.070;2022-08-03T08:16:30;98300.31;;;30.85
15360;BMP280;7779;49.596;11.070;2022-08-03T08:18:56;98295.84;;;30.92
15360;BMP280;7779;49.596;11.070;2022-08-03T08:21:22;98300.78;;;31.01
15360;BMP280;7779;49.596;11.070;2022-08-03T08:23:47;98299.66;;;31.10
15360;BMP280;7779;49.596;11.070;2022-08-03T08:26:13;98297.72;;;31.20
15360;BMP280;7779;49.596;11.070;2022-08-03T08:28:39;98299.19;;;31.28
15360;BMP280;7779;49.596;11.070;2022-08-03T08:31:05;98292.16;;;31.35
15360;BMP280;7779;49.596;11.070;2022-08-03T08:33:32;98285.88;;;31.43
15360;BMP280;7779;49.596;11.070;2022-08-03T08:35:59;98287.34;;;31.53
15360;BMP280;7779;49.596;11.070;2022-08-03T08:38:25;98285.31;;;31.64
15360;BMP280;7779;49.596;11.070;2022-08-03T08:40:54;98288.44;;;31.75
15360;BMP280;7779;49.596;11.070;2022-08-03T08:43:20;98284.78;;;31.82
15360;BMP280;7779;49.596;11.070;2022-08-03T08:45:48;98276.00;;;31.89
15360;BMP280;7779;49.596;11.070;2022-08-03T08:48:23;98279.19;;;31.96
15360;BMP280;7779;49.596;11.070;2022-08-03T08:50:53;98282.47;;;32.03
15360;BMP280;7779;49.596;11.070;2022-08-03T08:53:20;98280.53;;;32.09
15360;BMP280;7779;49.596;11.070;2022-08-03T08:55:49;98276.88;;;32.16
15360;BMP280;7779;49.596;11.070;2022-08-03T08:58:18;98278.38;;;32.23
15360;BMP280;7779;49.596;11.070;2022-08-03T09:00:46;98273.84;;;32.29
15360;BMP280;7779;49.596;11.070;2022-08-03T09:03:13;98269.38;;;32.34
15360;BMP280;7779;49.596;11.070;2022-08-03T09:05:41;98267.50;;;32.41
15360;BMP280;7779;49.596;11.070;2022-08-03T09:08:08;98268.09;;;32.49
15360;BMP280;7779;49.596;11.070;2022-08-03T09:10:34;98261.88;;;32.54
15360;BMP280;7779;49.596;11.070;2022-08-03T09:13:00;98262.69;;;32.55
15360;BMP280;7779;49.596;11.070;2022-08-03T09:15:31;98258.34;;;32.57
15360;BMP280;7779;49.596;11.070;2022-08-03T09:18:02;98254.75;;;32.61
15360;BMP280;7779;49.596;11.070;2022-08-03T09:20:32;98261.53;;;32.65
15360;BMP280;7779;49.596;11.070;2022-08-03T09:23:07;98251.94;;;32.67
15360;BMP280;7779;49.596;11.070;2022-08-03T09:25:42;98251.78;;;32.71
15360;BMP280;7779;49.596;11.070;2022-08-03T09:28:13;98255.97;;;32.76
15360;BMP280;7779;49.596;11.070;2022-08-03T09:30:44;98250.56;;;32.82
15360;BMP280;7779;49.596;11.070;2022-08-03T09:33:13;98248.72;;;32.86
15360;BMP280;7779;49.596;11.070;2022-08-03T09:35:46;98251.22;;;32.89
15360;BMP280;7779;49.596;11.070;2022-08-03T09:38:21;98253.56;;;32.96
15360;BMP280;7779;49.596;11.070;2022-08-03T09:40:55;98250.72;;;33.04
15360;BMP280;7779;49.596;11.070;2022-08-03T09:43:21;98242.69;;;33.11
15360;BMP280;7779;49.596;11.070;2022-08-03T09:45:50;98245.75;;;33.22
15360;BMP280;7779;49.596;11.070;2022-08-03T09:48:26;98250.72;;;33.28
15360;BMP280;7779;49.596;11.070;2022-08-03T09:50:57;98248.00;;;33.32
15360;BMP280;7779;49.596;11.070;2022-08-03T09:53:24;98248.72;;;33.36
15360;BMP280;7779;49.596;11.070;2022-08-03T09:56:01;98249.44;;;33.41
15360;BMP280;7779;49.596;11.070;2022-08-03T09:58:29;98247.56;;;33.44
15360;BMP280;7779;49.596;11.070;2022-08-03T10:03:34;98246.41;;;33.52
15360;BMP280;7779;49.596;11.070;2022-08-03T10:06:18;98241.94;;;33.56
15360;BMP280;7779;49.596;11.070;2022-08-03T10:08:45;98234.94;;;33.58
15360;BMP280;7779;49.596;11.070;2022-08-03T10:11:11;98240.00;;;33.61
15360;BMP280;7779;49.596;11.070;2022-08-03T10:13:53;98232.97;;;33.64
15360;BMP280;7779;49.596;11.070;2022-08-03T10:16:19;98230.25;;;33.67
15360;BMP280;7779;49.596;11.070;2022-08-03T10:18:45;98233.66;;;33.69
15360;BMP280;7779;49.596;11.070;2022-08-03T10:21:16;98233.53;;;33.72
15360;BMP280;7779;49.596;11.070;2022-08-03T10:23:46;98232.56;;;33.75
15360;BMP280;7779;49.596;11.070;2022-08-03T10:26:17;98223.75;;;33.79
15360;BMP280;7779;49.596;11.070;2022-08-03T10:28:49;98221.00;;;33.83
15360;BMP280;7779;49.596;11.070;2022-08-03T10:31:19;98226.81;;;33.90
15360;BMP280;7779;49.596;11.070;2022-08-03T10:33:51;98217.91;;;33.96
15360;BMP280;7779;49.596;11.070;2022-08-03T10:36:23;98214.16;;;34.03
15360;BMP280;7779;49.596;11.070;2022-08-03T10:38:51;98217.31;;;34.11
15360;BMP280;7779;49.596;11.070;2022-08-03T10:41:25;98207.53;;;34.18
15360;BMP280;7779;49.596;11.070;2022-08-03T10:44:19;98204.56;;;34.27
15360;BMP280;7779;49.596;11.070;2022-08-03T10:46:47;98205.25;;;34.31
15360;BMP280;7779;49.596;11.070;2022-08-03T10:49:20;98199.03;;;34.35
15360;BMP280;7779;49.596;11.070;2022-08-03T10:51:47;98198.94;;;34.38
15360;BMP280;7779;49.596;11.070;2022-08-03T10:57:02;98188.38;;;34.41
15360;BMP280;7779;49.596;11.070;2022-08-03T11:02:14;98185.66;;;34.44
15360;BMP280;7779;49.596;11.070;2022-08-03T11:04:41;98183.00;;;34.46
15360;BMP280;7779;49.596;11.070;2022-08-03T11:09:43;98183.72;;;34.49
15360;BMP280;7779;49.596;11.070;2022-08-03T11:12:30;98177.53;;;34.52
15360;BMP280;7779;49.596;11.070;2022-08-03T11:15:00;98179.22;;;34.53
15360;BMP280;7779;49.596;11.070;2022-08-03T11:17:27;98178.25;;;34.55
15360;BMP280;7779;49.596;11.070;2022-08-03T11:19:53;98168.59;;;34.59
15360;BMP280;7779;49.596;11.070;2022-08-03T11:22:20;98169.16;;;34.65
15360;BMP280;7779;49.596;11.070;2022-08-03T11:27:30;98160.34;;;34.69
15360;BMP280;7779;49.596;11.070;2022-08-03T11:35:23;98151.16;;;34.61
15360;BMP280;7779;49.596;11.070;2022-08-03T11:40:50;98146.78;;;34.61
15360;BMP280;7779;49.596;11.070;2022-08-03T11:45:58;98149.06;;;34.69
15360;BMP280;7779;49.596;11.070;2022-08-03T11:48:43;98156.81;;;34.70
15360;BMP280;7779;49.596;11.070;2022-08-03T11:51:24;98144.56;;;34.72
15360;BMP280;7779;49.596;11.070;2022-08-03T11:54:05;98150.50;;;34.75
15360;BMP280;7779;49.596;11.070;2022-08-03T11:56:51;98148.59;;;34.79
15360;BMP280;7779;49.596;11.070;2022-08-03T11:59:17;98141.56;;;34.82
15360;BMP280;7779;49.596;11.070;2022-08-03T12:01:43;98145.78;;;34.85
15360;BMP280;7779;49.596;11.070;2022-08-03T12:04:10;98141.28;;;34.88
15360;BMP280;7779;49.596;11.070;2022-08-03T12:06:36;98144.66;;;34.90
15360;BMP280;7779;49.596;11.070;2022-08-03T12:09:21;98132.31;;;34.95
15360;BMP280;7779;49.596;11.070;2022-08-03T12:11:48;98131.19;;;35.01
15360;BMP280;7779;49.596;11.070;2022-08-03T12:14:18;98123.88;;;35.09
15360;BMP280;7779;49.596;11.070;2022-08-03T12:16:48;98122.78;;;35.14
15360;BMP280;7779;49.596;11.070;2022-08-03T12:19:14;98115.66;;;35.17
15360;BMP280;7779;49.596;11.070;2022-08-03T12:21:50;98119.84;;;35.21
15360;BMP280;7779;49.596;11.070;2022-08-03T12:24:16;98113.69;;;35.22
15360;BMP280;7779;49.596;11.070;2022-08-03T12:26:46;98124.69;;;35.30
15360;BMP280;7779;49.596;11.070;2022-08-03T12:29:22;98118.34;;;35.36
15360;BMP280;7779;49.596;11.070;2022-08-03T12:31:50;98117.13;;;35.43
15360;BMP280;7779;49.596;11.070;2022-08-03T12:34:16;98113.41;;;35.48
15360;BMP280;7779;49.596;11.070;2022-08-03T12:36:54;98101.78;;;35.55
15360;BMP280;7779;49.596;11.070;2022-08-03T12:39:26;98102.41;;;35.60
15360;BMP280;7779;49.596;11.070;2022-08-03T12:41:56;98100.38;;;35.66
15360;BMP280;7779;49.596;11.070;2022-08-03T12:44:33;98106.94;;;35.75
15360;BMP280;7779;49.596;11.070;2022-08-03T12:47:01;98101.47;;;35.81
15360;BMP280;7779;49.596;11.070;2022-08-03T12:49:28;98103.91;;;35.84
15360;BMP280;7779;49.596;11.070;2022-08-03T12:51:56;98091.56;;;35.87
15360;BMP280;7779;49.596;11.070;2022-08-03T12:54:28;98092.41;;;35.88
15360;BMP280;7779;49.596;11.070;2022-08-03T12:57:14;98091.44;;;35.90
15360;BMP280;7779;49.596;11.070;2022-08-03T12:59:43;98088.66;;;35.93
15360;BMP280;7779;49.596;11.070;2022-08-03T13:02:22;98086.69;;;35.98
15360;BMP280;7779;49.596;11.070;2022-08-03T13:04:49;98079.56;;;36.01
15360;BMP280;7779;49.596;11.070;2022-08-03T13:07:17;98078.50;;;36.05
15360;BMP280;7779;49.596;11.070;2022-08-03T13:09:52;98072.19;;;36.09
15360;BMP280;7779;49.596;11.070;2022-08-03T13:12:23;98068.53;;;36.13
15360;BMP280;7779;49.596;11.070;2022-08-03T13:14:57;98060.72;;;36.13
15360;BMP280;7779;49.596;11.070;2022-08-03T13:17:24;98057.19;;;36.14
15360;BMP280;7779;49.596;11.070;2022-08-03T13:19:50;98063.09;;;36.18
15360;BMP280;7779;49.596;11.070;2022-08-03T13:22:23;98066.44;;;36.21
15360;BMP280;7779;49.596;11.070;2022-08-03T13:24:54;98061.97;;;36.23
15360;BMP280;7779;49.596;11.070;2022-08-03T13:27:23;98065.28;;;36.27
15360;BMP280;7779;49.596;11.070;2022-08-03T13:29:50;98069.47;;;36.29
15360;BMP280;7779;49.596;11.070;2022-08-03T13:32:17;98067.69;;;36.31
15360;BMP280;7779;49.596;11.070;2022-08-03T13:34:44;98068.34;;;36.34
15360;BMP280;7779;49.596;11.070;2022-08-03T13:37:10;98060.38;;;36.37
15360;BMP280;7779;49.596;11.070;2022-08-03T13:39:38;98062.06;;;36.38
15360;BMP280;7779;49.596;11.070;2022-08-03T13:42:04;98059.47;;;36.38
15360;BMP280;7779;49.596;11.070;2022-08-03T13:44:31;98041.25;;;36.37
15360;BMP280;7779;49.596;11.070;2022-08-03T13:46:57;98049.84;;;36.39
15360;BMP280;7779;49.596;11.070;2022-08-03T13:49:26;98043.81;;;36.38
15360;BMP280;7779;49.596;11.070;2022-08-03T13:51:52;98037.56;;;36.41
15360;BMP280;7779;49.596;11.070;2022-08-03T13:54:18;98038.34;;;36.43
15360;BMP280;7779;49.596;11.070;2022-08-03T13:56:46;98041.72;;;36.45
15360;BMP280;7779;49.596;11.070;2022-08-03T13:59:20;98044.31;;;36.45
15360;BMP280;7779;49.596;11.070;2022-08-03T14:01:49;98037.31;;;36.45
15360;BMP280;7779;49.596;11.070;2022-08-03T14:04:16;98037.31;;;36.45
15360;BMP280;7779;49.596;11.070;2022-08-03T14:06:42;98033.72;;;36.48
15360;BMP280;7779;49.596;11.070;2022-08-03T14:09:14;98036.09;;;36.52
15360;BMP280;7779;49.596;11.070;2022-08-03T14:11:42;98031.56;;;36.56
15360;BMP280;7779;49.596;11.070;2022-08-03T14:14:09;98034.09;;;36.57
15360;BMP280;7779;49.596;11.070;2022-08-03T14:16:36;98031.41;;;36.59
15360;BMP280;7779;49.596;11.070;2022-08-03T14:19:03;98032.19;;;36.61
15360;BMP280;7779;49.596;11.070;2022-08-03T14:21:29;98028.66;;;36.62
15360;BMP280;7779;49.596;11.070;2022-08-03T14:23:55;98025.91;;;36.65
15360;BMP280;7779;49.596;11.070;2022-08-03T14:26:23;98028.44;;;36.66
15360;BMP280;7779;49.596;11.070;2022-08-03T14:28:49;98028.38;;;36.68
15360;BMP280;7779;49.596;11.070;2022-08-03T14:31:16;98022.22;;;36.69
15360;BMP280;7779;49.596;11.070;2022-08-03T14:33:42;98018.69;;;36.70
15360;BMP280;7779;49.596;11.070;2022-08-03T14:36:08;98021.22;;;36.71
15360;BMP280;7779;49.596;11.070;2022-08-03T14:38:33;98017.69;;;36.72
15360;BMP280;7779;49.596;11.070;2022-08-03T14:40:59;98014.16;;;36.73
15360;BMP280;7779;49.596;11.070;2022-08-03T14:43:25;98008.09;;;36.72
15360;BMP280;7779;49.596;11.070;2022-08-03T14:45:52;98022.81;;;36.73
15360;BMP280;7779;49.596;11.070;2022-08-03T14:48:22;98017.53;;;36.75
15360;BMP280;7779;49.596;11.070;2022-08-03T14:50:49;98008.84;;;36.74
15360;BMP280;7779;49.596;11.070;2022-08-03T14:53:17;98011.47;;;36.74
15360;BMP280;7779;49.596;11.070;2022-08-03T14:55:44;98009.75;;;36.73